AXB1487 VOMM-VOBL
Flight info
| Callsign | AXB1487 |
|---|---|
| Flight time | 0h 32m |
| Altitude | 20000 |
| Route | MMV W117 BIA |
| Aircraft | B77W/H-SDE1E2E3FGHIJ2J3J4J5M1RWXY/LB1D1 |
Departure
| Time | 2026-05-06 17:08 |
|---|---|
| Airport | Chennai International Airport (VOMM) |
Arrival
| Time | 2026-05-06 17:40 |
|---|---|
| Airport | Kempegowda International Airport Bengaluru (VOBL) |
| Time | Latitude | Longitude | Altitude | Speed | Heading |
|---|---|---|---|---|---|
| 2026-05-06 16:55 | 12.98392 | 80.16382 | 51 ft | 0 kts | 159° |
| 2026-05-06 17:01 | 12.98398 | 80.16380 | 51 ft | 1 kts | 159° |
| 2026-05-06 17:01 | 12.98419 | 80.16370 | 51 ft | 4 kts | 176° |
| 2026-05-06 17:01 | 12.98441 | 80.16375 | 51 ft | 4 kts | 214° |
| 2026-05-06 17:01 | 12.98456 | 80.16395 | 51 ft | 4 kts | 255° |
| 2026-05-06 17:02 | 12.98461 | 80.16412 | 51 ft | 0 kts | 250° |
| 2026-05-06 17:03 | 12.98459 | 80.16409 | 51 ft | 2 kts | 250° |
| 2026-05-06 17:04 | 12.98442 | 80.16360 | 51 ft | 13 kts | 250° |
| 2026-05-06 17:04 | 12.98405 | 80.16256 | 54 ft | 16 kts | 250° |
| 2026-05-06 17:04 | 12.98367 | 80.16149 | 55 ft | 16 kts | 249° |
| 2026-05-06 17:04 | 12.98326 | 80.16041 | 51 ft | 16 kts | 248° |
| 2026-05-06 17:05 | 12.98295 | 80.15932 | 60 ft | 16 kts | 264° |
| 2026-05-06 17:05 | 12.98316 | 80.15817 | 53 ft | 17 kts | 285° |
| 2026-05-06 17:05 | 12.98344 | 80.15717 | 54 ft | 14 kts | 286° |
| 2026-05-06 17:05 | 12.98370 | 80.15624 | 54 ft | 14 kts | 285° |
| 2026-05-06 17:06 | 12.98395 | 80.15530 | 56 ft | 14 kts | 284° |
| 2026-05-06 17:06 | 12.98452 | 80.15469 | 54 ft | 14 kts | 12° |
| 2026-05-06 17:06 | 12.98508 | 80.15546 | 57 ft | 14 kts | 68° |
| 2026-05-06 17:06 | 12.98534 | 80.15612 | 54 ft | 10 kts | 69° |
| 2026-05-06 17:07 | 12.98580 | 80.15737 | 56 ft | 32 kts | 69° |
| 2026-05-06 17:07 | 12.98745 | 80.16176 | 53 ft | 107 kts | 69° |
| 2026-05-06 17:07 | 12.99098 | 80.17128 | 53 ft | 176 kts | 68° |
| 2026-05-06 17:07 | 12.99590 | 80.18369 | 592 ft | 188 kts | 70° |
| 2026-05-06 17:08 | 13.00052 | 80.19622 | 1455 ft | 186 kts | 68° |
| 2026-05-06 17:08 | 13.00956 | 80.20627 | 2038 ft | 206 kts | 27° |
| 2026-05-06 17:08 | 13.02432 | 80.20804 | 2405 ft | 230 kts | 349° |
| 2026-05-06 17:08 | 13.04016 | 80.20165 | 2590 ft | 260 kts | 339° |
| 2026-05-06 17:09 | 13.05812 | 80.19584 | 3181 ft | 274 kts | 347° |
| 2026-05-06 17:09 | 13.07672 | 80.19210 | 4213 ft | 272 kts | 351° |
| 2026-05-06 17:09 | 13.09504 | 80.18808 | 5135 ft | 270 kts | 338° |
| 2026-05-06 17:09 | 13.11049 | 80.17697 | 5797 ft | 276 kts | 310° |
| 2026-05-06 17:10 | 13.11997 | 80.15973 | 6640 ft | 282 kts | 288° |
| 2026-05-06 17:10 | 13.12387 | 80.14012 | 7354 ft | 288 kts | 280° |
| 2026-05-06 17:10 | 13.12684 | 80.11955 | 8128 ft | 294 kts | 279° |
| 2026-05-06 17:10 | 13.12964 | 80.09863 | 8972 ft | 299 kts | 279° |
| 2026-05-06 17:11 | 13.13246 | 80.07736 | 9774 ft | 304 kts | 279° |
| 2026-05-06 17:11 | 13.13539 | 80.05552 | 10405 ft | 316 kts | 279° |
| 2026-05-06 17:11 | 13.13857 | 80.03225 | 10639 ft | 344 kts | 279° |
| 2026-05-06 17:11 | 13.14207 | 80.00693 | 10842 ft | 372 kts | 279° |
| 2026-05-06 17:12 | 13.14583 | 79.97996 | 11311 ft | 388 kts | 279° |
| 2026-05-06 17:12 | 13.14971 | 79.95224 | 12110 ft | 396 kts | 278° |
| 2026-05-06 17:12 | 13.15366 | 79.92413 | 13111 ft | 400 kts | 278° |
| 2026-05-06 17:12 | 13.15766 | 79.89575 | 14061 ft | 403 kts | 278° |
| 2026-05-06 17:13 | 13.16169 | 79.86724 | 14958 ft | 405 kts | 278° |
| 2026-05-06 17:13 | 13.16575 | 79.83851 | 15844 ft | 408 kts | 278° |
| 2026-05-06 17:13 | 13.16983 | 79.80961 | 16705 ft | 411 kts | 278° |
| 2026-05-06 17:13 | 13.17396 | 79.78044 | 17539 ft | 415 kts | 278° |
| 2026-05-06 17:14 | 13.17812 | 79.75098 | 18362 ft | 418 kts | 278° |
| 2026-05-06 17:14 | 13.18229 | 79.72144 | 19117 ft | 420 kts | 278° |
| 2026-05-06 17:14 | 13.18644 | 79.69201 | 19758 ft | 425 kts | 278° |
| 2026-05-06 17:14 | 13.19070 | 79.66178 | 19894 ft | 434 kts | 278° |
| 2026-05-06 17:15 | 13.19504 | 79.63088 | 19892 ft | 440 kts | 278° |
| 2026-05-06 17:15 | 13.19943 | 79.59969 | 19889 ft | 441 kts | 278° |
| 2026-05-06 17:15 | 13.20380 | 79.56858 | 19881 ft | 439 kts | 278° |
| 2026-05-06 17:15 | 13.20815 | 79.53766 | 19877 ft | 438 kts | 278° |
| 2026-05-06 17:16 | 13.21249 | 79.50667 | 19879 ft | 437 kts | 278° |
| 2026-05-06 17:16 | 13.21683 | 79.47577 | 19881 ft | 437 kts | 278° |
| 2026-05-06 17:16 | 13.22115 | 79.44491 | 19877 ft | 437 kts | 278° |
| 2026-05-06 17:16 | 13.22546 | 79.41410 | 19882 ft | 437 kts | 278° |
| 2026-05-06 17:17 | 13.22977 | 79.38327 | 19885 ft | 437 kts | 278° |
| 2026-05-06 17:17 | 13.23409 | 79.35229 | 19886 ft | 437 kts | 278° |
| 2026-05-06 17:17 | 13.23841 | 79.32132 | 19893 ft | 438 kts | 278° |
| 2026-05-06 17:17 | 13.24267 | 79.29074 | 19892 ft | 438 kts | 278° |
| 2026-05-06 17:18 | 13.24699 | 79.25977 | 19893 ft | 439 kts | 278° |
| 2026-05-06 17:18 | 13.25131 | 79.22874 | 19894 ft | 439 kts | 278° |
| 2026-05-06 17:18 | 13.25561 | 79.19777 | 19900 ft | 439 kts | 278° |
| 2026-05-06 17:18 | 13.25992 | 79.16676 | 19903 ft | 439 kts | 278° |
| 2026-05-06 17:19 | 13.26422 | 79.13573 | 19903 ft | 439 kts | 278° |
| 2026-05-06 17:19 | 13.26853 | 79.10468 | 19904 ft | 439 kts | 278° |
| 2026-05-06 17:19 | 13.27283 | 79.07361 | 19913 ft | 439 kts | 278° |
| 2026-05-06 17:19 | 13.27712 | 79.04261 | 19911 ft | 439 kts | 278° |
| 2026-05-06 17:20 | 13.28141 | 79.01161 | 19912 ft | 439 kts | 278° |
| 2026-05-06 17:20 | 13.28570 | 78.98056 | 19916 ft | 439 kts | 278° |
| 2026-05-06 17:20 | 13.28998 | 78.94955 | 19919 ft | 439 kts | 278° |
| 2026-05-06 17:20 | 13.29409 | 78.91860 | 19921 ft | 439 kts | 276° |
| 2026-05-06 17:21 | 13.29458 | 78.88733 | 19934 ft | 437 kts | 266° |
| 2026-05-06 17:21 | 13.29215 | 78.85626 | 19927 ft | 438 kts | 264° |
| 2026-05-06 17:21 | 13.28913 | 78.82514 | 19930 ft | 439 kts | 264° |
| 2026-05-06 17:21 | 13.28616 | 78.79393 | 19932 ft | 439 kts | 265° |
| 2026-05-06 17:22 | 13.28344 | 78.76269 | 19940 ft | 440 kts | 265° |
| 2026-05-06 17:22 | 13.28095 | 78.73135 | 19938 ft | 440 kts | 265° |
| 2026-05-06 17:22 | 13.27865 | 78.70043 | 19942 ft | 440 kts | 266° |
| 2026-05-06 17:22 | 13.27635 | 78.66867 | 19954 ft | 440 kts | 266° |
| 2026-05-06 17:23 | 13.27414 | 78.63779 | 19950 ft | 439 kts | 266° |
| 2026-05-06 17:23 | 13.27190 | 78.60659 | 19949 ft | 438 kts | 266° |
| 2026-05-06 17:23 | 13.26965 | 78.57544 | 19943 ft | 437 kts | 266° |
| 2026-05-06 17:23 | 13.26739 | 78.54438 | 19953 ft | 436 kts | 266° |
| 2026-05-06 17:24 | 13.26512 | 78.51331 | 19961 ft | 435 kts | 266° |
| 2026-05-06 17:24 | 13.26286 | 78.48238 | 19958 ft | 435 kts | 266° |
| 2026-05-06 17:24 | 13.26217 | 78.45140 | 19949 ft | 433 kts | 275° |
| 2026-05-06 17:24 | 13.26649 | 78.42090 | 19966 ft | 432 kts | 280° |
| 2026-05-06 17:25 | 13.27213 | 78.39048 | 19959 ft | 433 kts | 281° |
| 2026-05-06 17:25 | 13.27777 | 78.36007 | 19966 ft | 434 kts | 280° |
| 2026-05-06 17:25 | 13.28310 | 78.32964 | 19971 ft | 435 kts | 280° |
| 2026-05-06 17:25 | 13.28818 | 78.29891 | 19965 ft | 435 kts | 279° |
| 2026-05-06 17:26 | 13.29308 | 78.26820 | 19971 ft | 436 kts | 279° |
| 2026-05-06 17:26 | 13.29791 | 78.23764 | 19956 ft | 430 kts | 279° |
| 2026-05-06 17:26 | 13.30269 | 78.20740 | 19583 ft | 427 kts | 279° |
| 2026-05-06 17:26 | 13.30604 | 78.17724 | 19067 ft | 423 kts | 274° |
| 2026-05-06 17:27 | 13.30684 | 78.14714 | 18522 ft | 420 kts | 270° |
| 2026-05-06 17:27 | 13.30668 | 78.11729 | 17882 ft | 418 kts | 270° |
| 2026-05-06 17:27 | 13.30640 | 78.08758 | 17250 ft | 414 kts | 270° |
| 2026-05-06 17:27 | 13.30632 | 78.05841 | 17046 ft | 400 kts | 271° |
| 2026-05-06 17:28 | 13.30644 | 78.03079 | 16950 ft | 385 kts | 271° |
| 2026-05-06 17:28 | 13.30670 | 78.00370 | 16835 ft | 372 kts | 271° |
| 2026-05-06 17:28 | 13.30703 | 77.97752 | 16636 ft | 362 kts | 271° |
| 2026-05-06 17:28 | 13.30739 | 77.95192 | 16317 ft | 356 kts | 272° |
| 2026-05-06 17:29 | 13.30775 | 77.92654 | 15887 ft | 354 kts | 272° |
| 2026-05-06 17:29 | 13.30810 | 77.90156 | 15753 ft | 343 kts | 272° |
| 2026-05-06 17:29 | 13.30842 | 77.87751 | 15674 ft | 331 kts | 272° |
| 2026-05-06 17:29 | 13.30875 | 77.85408 | 15378 ft | 327 kts | 272° |
| 2026-05-06 17:30 | 13.30907 | 77.83092 | 14927 ft | 329 kts | 272° |
| 2026-05-06 17:30 | 13.30939 | 77.80697 | 14414 ft | 333 kts | 272° |
| 2026-05-06 17:30 | 13.30971 | 77.78309 | 13900 ft | 337 kts | 272° |
| 2026-05-06 17:30 | 13.30996 | 77.75919 | 13330 ft | 341 kts | 272° |
| 2026-05-06 17:31 | 13.31015 | 77.73464 | 12739 ft | 345 kts | 272° |
| 2026-05-06 17:31 | 13.31035 | 77.70997 | 12167 ft | 349 kts | 272° |
| 2026-05-06 17:31 | 13.31055 | 77.68485 | 11613 ft | 351 kts | 272° |
| 2026-05-06 17:31 | 13.31075 | 77.65971 | 11122 ft | 352 kts | 272° |
| 2026-05-06 17:32 | 13.31094 | 77.63471 | 10601 ft | 353 kts | 272° |
| 2026-05-06 17:32 | 13.31114 | 77.60938 | 10107 ft | 354 kts | 272° |
| 2026-05-06 17:32 | 13.31133 | 77.58406 | 9671 ft | 352 kts | 272° |
| 2026-05-06 17:32 | 13.31149 | 77.55981 | 9504 ft | 323 kts | 271° |
| 2026-05-06 17:33 | 13.31164 | 77.53770 | 9339 ft | 300 kts | 272° |
| 2026-05-06 17:33 | 13.31180 | 77.51632 | 8986 ft | 303 kts | 272° |
| 2026-05-06 17:33 | 13.31195 | 77.49452 | 8638 ft | 306 kts | 270° |
| 2026-05-06 17:33 | 13.30783 | 77.47332 | 8231 ft | 301 kts | 245° |
| 2026-05-06 17:34 | 13.29588 | 77.45662 | 7831 ft | 283 kts | 218° |
| 2026-05-06 17:34 | 13.27928 | 77.44785 | 7456 ft | 264 kts | 189° |
| 2026-05-06 17:34 | 13.26176 | 77.44807 | 7090 ft | 243 kts | 159° |
| 2026-05-06 17:34 | 13.24872 | 77.45664 | 7027 ft | 209 kts | 128° |
| 2026-05-06 17:35 | 13.24068 | 77.46837 | 6999 ft | 198 kts | 120° |
| 2026-05-06 17:35 | 13.23343 | 77.48053 | 7024 ft | 201 kts | 119° |
| 2026-05-06 17:35 | 13.22627 | 77.49279 | 6958 ft | 199 kts | 119° |
| 2026-05-06 17:36 | 13.21232 | 77.51738 | 6493 ft | 195 kts | 110° |
| 2026-05-06 17:36 | 13.20980 | 77.53067 | 6079 ft | 188 kts | 96° |
| 2026-05-06 17:36 | 13.20869 | 77.54399 | 5635 ft | 185 kts | 93° |
| 2026-05-06 17:36 | 13.20831 | 77.55656 | 5432 ft | 168 kts | 92° |
| 2026-05-06 17:37 | 13.20817 | 77.56810 | 5234 ft | 158 kts | 92° |
| 2026-05-06 17:37 | 13.20806 | 77.57940 | 5021 ft | 162 kts | 93° |
| 2026-05-06 17:37 | 13.20796 | 77.59103 | 4830 ft | 163 kts | 93° |
| 2026-05-06 17:37 | 13.20787 | 77.60256 | 4612 ft | 160 kts | 92° |
| 2026-05-06 17:38 | 13.20778 | 77.61395 | 4407 ft | 160 kts | 94° |
| 2026-05-06 17:38 | 13.20768 | 77.62528 | 4194 ft | 154 kts | 94° |
| 2026-05-06 17:38 | 13.20758 | 77.63599 | 4018 ft | 149 kts | 92° |
| 2026-05-06 17:38 | 13.20750 | 77.64673 | 3826 ft | 151 kts | 93° |
| 2026-05-06 17:39 | 13.20737 | 77.65736 | 3565 ft | 145 kts | 91° |
| 2026-05-06 17:39 | 13.20734 | 77.66749 | 3399 ft | 141 kts | 92° |
| 2026-05-06 17:39 | 13.20726 | 77.67752 | 3190 ft | 140 kts | 92° |
| 2026-05-06 17:39 | 13.20720 | 77.68742 | 3030 ft | 139 kts | 92° |
| 2026-05-06 17:40 | 13.20711 | 77.69658 | 3016 ft | 111 kts | 91° |
| 2026-05-06 17:40 | 13.20705 | 77.70289 | 3016 ft | 67 kts | 91° |
| 2026-05-06 17:40 | 13.20703 | 77.70673 | 3016 ft | 50 kts | 90° |
| 2026-05-06 17:40 | 13.20675 | 77.70913 | 3015 ft | 21 kts | 109° |
| 2026-05-06 17:41 | 13.20608 | 77.71047 | 3015 ft | 21 kts | 120° |
| 2026-05-06 17:41 | 13.20539 | 77.71182 | 3016 ft | 21 kts | 103° |
| 2026-05-06 17:41 | 13.20525 | 77.71333 | 3016 ft | 21 kts | 90° |
| 2026-05-06 17:41 | 13.20523 | 77.71485 | 3016 ft | 21 kts | 90° |
| 2026-05-06 17:42 | 13.20522 | 77.71638 | 3016 ft | 21 kts | 90° |
| 2026-05-06 17:42 | 13.20521 | 77.71790 | 3017 ft | 21 kts | 90° |
| 2026-05-06 17:42 | 13.20519 | 77.71943 | 3016 ft | 21 kts | 91° |
| 2026-05-06 17:42 | 13.20507 | 77.72087 | 3016 ft | 16 kts | 117° |
| 2026-05-06 17:43 | 13.20415 | 77.72113 | 3016 ft | 16 kts | 181° |
| 2026-05-06 17:43 | 13.20280 | 77.72112 | 3016 ft | 23 kts | 179° |
| 2026-05-06 17:43 | 13.20169 | 77.72112 | 3016 ft | 25 kts | 180° |
| 2026-05-06 17:43 | 13.19968 | 77.72110 | 3016 ft | 14 kts | 180° |
| 2026-05-06 17:44 | 13.19898 | 77.72096 | 3016 ft | 9 kts | 215° |
| 2026-05-06 17:44 | 13.19870 | 77.72063 | 3016 ft | 10 kts | 245° |
| 2026-05-06 17:44 | 13.19865 | 77.72030 | 3016 ft | 2 kts | 266° |
| 2026-05-06 17:44 | 13.19864 | 77.72020 | 3016 ft | 0 kts | 267° |
| 2026-05-06 17:46 | 13.20719 | 77.68708 | 3020 ft | 0 kts | 90° |